Time;durP1;ratioP1;P1;durP2;ratioP2;P2;SDS_P1;SDS_P2;PMS_P1;PMS_P2;Temp;Humidity;BMP_temperature;BMP_pressure;BME280_temperature;BME280_humidity;BME280_pressure;Samples;Min_cycle;Max_cycle;Signal;HPM_P1;HPM_P2
2022/02/08 00:00:02;;;;;;;8.23;3.60;;;;;;;;;;2076667;28;20179;-60
2022/02/08 00:01:05;;;;;;;4.23;3.27;;;;;;;;;;2080708;28;20190;-61
2022/02/08 00:02:09;;;;;;;7.83;4.23;;;;;;;;;;2081014;28;20692;-61
2022/02/08 00:03:09;;;;;;;6.80;3.23;;;;;;;;;;2080823;28;20172;-59
2022/02/08 00:04:09;;;;;;;7.00;3.80;;;;;;;;;;2081388;28;20267;-59
2022/02/08 00:05:12;;;;;;;10.00;4.37;;;;;;;;;;2081539;28;20625;-62
2022/02/08 00:06:37;;;;;;;5.27;3.47;;;;;;;;;;2080757;28;20200;-60
2022/02/08 00:07:38;;;;;;;6.33;3.60;;;;;;;;;;2083957;28;20175;-61
2022/02/08 00:08:38;;;;;;;8.00;3.63;;;;;;;;;;2085415;28;20660;-60
2022/02/08 00:09:38;;;;;;;7.33;4.03;;;;;;;;;;2091677;28;20187;-59
2022/02/08 00:10:39;;;;;;;10.07;3.97;;;;;;;;;;2091714;28;20262;-60
2022/02/08 00:11:40;;;;;;;6.20;3.77;;;;;;;;;;2082987;28;20191;-59
2022/02/08 00:12:40;;;;;;;6.70;3.67;;;;;;;;;;2082612;28;20179;-59
2022/02/08 00:13:41;;;;;;;8.13;4.13;;;;;;;;;;2085084;28;20180;-60
2022/02/08 00:14:41;;;;;;;9.50;3.77;;;;;;;;;;2082768;28;20259;-56
2022/02/08 00:15:41;;;;;;;5.47;4.00;;;;;;;;;;2086601;28;20203;-57
2022/02/08 00:16:41;;;;;;;7.73;4.27;;;;;;;;;;2082287;28;20179;-58
2022/02/08 00:17:42;;;;;;;7.37;3.47;;;;;;;;;;2084384;28;20680;-60
2022/02/08 00:18:42;;;;;;;8.93;3.60;;;;;;;;;;2085150;28;20188;-60
2022/02/08 00:19:42;;;;;;;7.07;3.63;;;;;;;;;;2085188;28;20164;-57
2022/02/08 00:20:42;;;;;;;7.40;3.97;;;;;;;;;;2085415;28;20584;-60
2022/02/08 00:21:42;;;;;;;7.70;4.10;;;;;;;;;;2083289;28;20289;-62
2022/02/08 00:22:43;;;;;;;8.13;3.77;;;;;;;;;;2082709;28;20175;-59
2022/02/08 00:23:43;;;;;;;11.80;4.00;;;;;;;;;;2085487;28;20180;-57
2022/02/08 00:24:43;;;;;;;7.03;3.57;;;;;;;;;;2085325;28;20617;-60
2022/02/08 00:25:44;;;;;;;11.03;3.90;;;;;;;;;;2082865;28;20534;-60
2022/02/08 00:26:44;;;;;;;7.23;3.80;;;;;;;;;;2084626;28;20180;-58
2022/02/08 00:27:44;;;;;;;7.67;3.90;;;;;;;;;;2083513;28;20184;-61
2022/02/08 00:28:44;;;;;;;6.73;3.60;;;;;;;;;;2082739;28;20214;-59
2022/02/08 00:29:46;;;;;;;12.80;3.90;;;;;;;;;;2083756;28;20164;-59
2022/02/08 00:30:47;;;;;;;8.97;3.87;;;;;;;;;;2085014;28;20203;-60
2022/02/08 00:31:47;;;;;;;9.20;4.13;;;;;;;;;;2082167;28;20212;-59
2022/02/08 00:32:47;;;;;;;9.17;4.00;;;;;;;;;;2083582;28;20586;-59
2022/02/08 00:33:48;;;;;;;9.07;4.30;;;;;;;;;;2093626;28;20168;-61
2022/02/08 00:34:48;;;;;;;8.10;3.87;;;;;;;;;;2092883;28;20559;-55
2022/02/08 00:35:48;;;;;;;8.77;3.73;;;;;;;;;;2090300;28;20186;-55
2022/02/08 00:36:49;;;;;;;9.87;4.50;;;;;;;;;;2084651;28;20176;-57
2022/02/08 00:37:49;;;;;;;8.33;4.10;;;;;;;;;;2084456;28;20337;-56
2022/02/08 00:38:51;;;;;;;9.57;4.20;;;;;;;;;;2083918;28;20200;-57
2022/02/08 00:39:52;;;;;;;7.20;4.03;;;;;;;;;;2085045;28;20221;-57
2022/02/08 00:40:58;;;;;;;10.10;3.97;;;;;;;;;;2073922;28;20180;-59
2022/02/08 00:42:10;;;;;;;13.07;4.63;;;;;;;;;;2085592;28;20195;-56
2022/02/08 00:43:10;;;;;;;5.60;4.30;;;;;;;;;;2089007;28;20282;-56
2022/02/08 00:44:18;;;;;;;13.60;4.47;;;;;;;;;;2092130;28;20156;-60
2022/02/08 00:47:35;;;;;;;6.90;4.17;;;;;;;;;;2091539;28;20189;-56
2022/02/08 00:48:48;;;;;;;10.70;4.57;;;;;;;;;;2090196;28;20235;-58
2022/02/08 00:49:48;;;;;;;12.40;4.57;;;;;;;;;;2092106;28;20255;-59
2022/02/08 00:50:51;;;;;;;11.03;4.63;;;;;;;;;;2080305;28;20211;-60
2022/02/08 00:51:57;;;;;;;13.30;4.57;;;;;;;;;;2076746;28;20271;-61
2022/02/08 00:52:57;;;;;;;6.30;4.60;;;;;;;;;;2075774;28;20184;-60
2022/02/08 00:53:57;;;;;;;11.20;5.00;;;;;;;;;;2083563;28;20167;-60
2022/02/08 00:54:58;;;;;;;8.77;4.10;;;;;;;;;;2080686;28;20172;-59
2022/02/08 00:55:58;;;;;;;16.13;5.73;;;;;;;;;;2073704;28;20617;-60
2022/02/08 00:56:58;;;;;;;9.53;4.77;;;;;;;;;;2071928;28;20227;-60
2022/02/08 00:57:59;;;;;;;10.13;5.00;;;;;;;;;;2073301;28;20208;-59
2022/02/08 00:58:59;;;;;;;12.77;5.27;;;;;;;;;;2075727;28;20222;-60
2022/02/08 00:59:59;;;;;;;13.23;5.17;;;;;;;;;;2075257;28;20280;-61
2022/02/08 01:01:00;;;;;;;11.20;4.40;;;;;;;;;;2078069;28;20208;-60
2022/02/08 01:02:00;;;;;;;12.97;4.63;;;;;;;;;;2075293;28;20768;-57
2022/02/08 01:03:00;;;;;;;12.03;5.40;;;;;;;;;;2081719;28;20520;-57
2022/02/08 01:04:01;;;;;;;11.97;5.57;;;;;;;;;;2083956;28;20210;-62
2022/02/08 01:05:05;;;;;;;10.50;5.23;;;;;;;;;;2085223;28;20179;-59
2022/02/08 01:06:05;;;;;;;9.97;4.93;;;;;;;;;;2083020;28;20250;-60
2022/02/08 01:07:07;;;;;;;11.37;5.20;;;;;;;;;;2081909;28;20206;-55
2022/02/08 01:08:07;;;;;;;14.80;5.13;;;;;;;;;;2076080;28;20192;-60
2022/02/08 01:09:15;;;;;;;10.33;5.30;;;;;;;;;;2084819;28;20187;-61
2022/02/08 01:10:18;;;;;;;10.20;5.47;;;;;;;;;;2084324;28;20184;-59
2022/02/08 01:11:19;;;;;;;7.60;5.00;;;;;;;;;;2084465;28;20198;-57
2022/02/08 01:12:20;;;;;;;10.77;4.93;;;;;;;;;;2083641;28;20195;-60
2022/02/08 01:13:21;;;;;;;8.63;5.17;;;;;;;;;;2083844;28;20190;-57
2022/02/08 01:14:23;;;;;;;12.33;5.43;;;;;;;;;;2076571;28;20215;-59
2022/02/08 01:15:24;;;;;;;11.43;5.57;;;;;;;;;;2075850;28;20707;-57
2022/02/08 01:16:24;;;;;;;8.80;5.87;;;;;;;;;;2083523;28;20229;-57
2022/02/08 01:17:26;;;;;;;14.83;5.80;;;;;;;;;;2085983;28;20203;-59
2022/02/08 01:18:29;;;;;;;16.07;5.47;;;;;;;;;;2083200;28;20658;-56
2022/02/08 01:19:29;;;;;;;11.70;6.00;;;;;;;;;;2081830;28;20238;-62
2022/02/08 01:20:35;;;;;;;10.10;5.83;;;;;;;;;;2087021;28;20171;-60
2022/02/08 01:21:36;;;;;;;12.57;5.97;;;;;;;;;;2081346;28;20167;-61
2022/02/08 01:22:39;;;;;;;12.07;6.33;;;;;;;;;;2084534;28;20266;-61
2022/02/08 01:23:40;;;;;;;12.60;6.87;;;;;;;;;;2082054;28;20613;-60
2022/02/08 01:24:42;;;;;;;11.00;5.70;;;;;;;;;;2084117;28;20175;-58
2022/02/08 01:25:51;;;;;;;15.23;6.73;;;;;;;;;;2078537;28;20227;-61
2022/02/08 01:27:05;;;;;;;14.17;7.17;;;;;;;;;;2092303;28;20176;-59
2022/02/08 01:28:20;;;;;;;13.17;6.97;;;;;;;;;;2083247;28;20164;-61
2022/02/08 01:29:36;;;;;;;23.17;7.20;;;;;;;;;;2082992;28;20273;-60
2022/02/08 01:30:59;;;;;;;16.60;8.03;;;;;;;;;;2088116;28;20233;-59
2022/02/08 01:34:24;;;;;;;16.40;8.23;;;;;;;;;;2070052;28;20174;-55
2022/02/08 01:35:54;;;;;;;17.10;7.70;;;;;;;;;;2061618;28;20180;-58
2022/02/08 01:37:06;;;;;;;16.57;8.37;;;;;;;;;;2063301;28;20207;-56
2022/02/08 01:38:21;;;;;;;18.10;9.03;;;;;;;;;;2079157;28;20223;-50
2022/02/08 01:39:30;;;;;;;23.23;9.50;;;;;;;;;;2070940;28;20882;-54
2022/02/08 01:40:49;;;;;;;18.90;9.70;;;;;;;;;;2068144;28;20187;-52
2022/02/08 01:42:03;;;;;;;22.70;10.17;;;;;;;;;;2070277;28;20247;-55
2022/02/08 01:48:26;;;;;;;21.40;10.77;;;;;;;;;;2045634;29;20283;-53
2022/02/08 01:49:49;;;;;;;20.30;11.10;;;;;;;;;;2041523;29;20183;-54
2022/02/08 01:50:51;;;;;;;20.67;11.37;;;;;;;;;;2054389;28;20240;-48
2022/02/08 01:51:51;;;;;;;17.20;11.07;;;;;;;;;;2062414;28;20185;-54
2022/02/08 01:52:52;;;;;;;22.47;11.37;;;;;;;;;;2063181;28;20686;-53
2022/02/08 01:54:00;;;;;;;24.37;13.07;;;;;;;;;;2061181;28;20177;-53
2022/02/08 01:55:02;;;;;;;23.60;13.50;;;;;;;;;;2055741;28;20182;-55
2022/02/08 01:56:03;;;;;;;20.43;13.30;;;;;;;;;;2065607;28;20185;-55
2022/02/08 01:57:03;;;;;;;26.00;14.83;;;;;;;;;;2062637;28;20227;-52
2022/02/08 01:58:04;;;;;;;21.70;14.80;;;;;;;;;;2052122;28;20182;-50
2022/02/08 01:59:06;;;;;;;29.60;15.00;;;;;;;;;;2060981;28;20185;-50
2022/02/08 02:00:10;;;;;;;25.27;15.83;;;;;;;;;;2070585;28;20181;-53
2022/02/08 02:01:18;;;;;;;29.20;15.73;;;;;;;;;;2059901;28;20653;-49
2022/02/08 02:02:18;;;;;;;27.27;16.23;;;;;;;;;;2059785;28;20198;-58
2022/02/08 02:03:18;;;;;;;27.63;17.17;;;;;;;;;;2061030;28;20665;-56
2022/02/08 02:04:19;;;;;;;27.77;16.57;;;;;;;;;;2054437;28;20289;-53
2022/02/08 02:05:20;;;;;;;28.57;16.33;;;;;;;;;;2054453;28;20541;-57
2022/02/08 02:06:21;;;;;;;26.73;16.87;;;;;;;;;;2053350;28;20198;-53
2022/02/08 02:07:21;;;;;;;31.17;17.53;;;;;;;;;;2062025;28;20197;-54
2022/02/08 02:08:21;;;;;;;32.27;18.10;;;;;;;;;;2054643;28;20178;-52
2022/02/08 02:09:25;;;;;;;24.50;15.90;;;;;;;;;;2055247;28;20177;-51
2022/02/08 02:10:26;;;;;;;28.17;17.03;;;;;;;;;;2062306;28;20567;-53
2022/02/08 02:11:28;;;;;;;25.30;16.03;;;;;;;;;;2053000;28;20674;-51
2022/02/08 02:12:29;;;;;;;28.40;15.33;;;;;;;;;;2051649;28;20282;-51
2022/02/08 02:13:45;;;;;;;27.33;16.50;;;;;;;;;;2070173;28;20299;-49
2022/02/08 02:14:49;;;;;;;28.63;16.57;;;;;;;;;;2060303;28;20642;-50
2022/02/08 02:15:49;;;;;;;29.00;15.43;;;;;;;;;;2060232;28;20180;-51
2022/02/08 02:16:57;;;;;;;25.30;14.63;;;;;;;;;;2057695;28;20204;-53
2022/02/08 02:17:57;;;;;;;29.73;15.20;;;;;;;;;;2044716;28;20432;-51
2022/02/08 02:18:59;;;;;;;30.53;16.00;;;;;;;;;;2046321;28;20177;-51
2022/02/08 02:20:04;;;;;;;30.10;15.10;;;;;;;;;;2053898;28;20800;-55
2022/02/08 02:21:05;;;;;;;29.47;14.10;;;;;;;;;;2053592;28;20179;-52
2022/02/08 02:22:07;;;;;;;25.17;13.87;;;;;;;;;;2053838;28;20191;-54
2022/02/08 02:23:07;;;;;;;21.30;13.43;;;;;;;;;;2056193;28;20187;-50
2022/02/08 02:24:07;;;;;;;25.23;14.17;;;;;;;;;;2060337;28;20670;-47
2022/02/08 02:25:18;;;;;;;26.57;14.07;;;;;;;;;;2053158;28;20631;-50
2022/02/08 02:26:18;;;;;;;34.30;13.70;;;;;;;;;;2052076;28;20901;-50
2022/02/08 02:27:19;;;;;;;25.17;14.20;;;;;;;;;;2058540;28;20229;-56
2022/02/08 02:28:19;;;;;;;30.37;13.87;;;;;;;;;;2061198;28;20724;-53
2022/02/08 02:29:21;;;;;;;24.50;12.73;;;;;;;;;;2052030;28;20175;-53
2022/02/08 02:30:22;;;;;;;24.87;13.77;;;;;;;;;;2051790;28;20205;-51
2022/02/08 02:31:22;;;;;;;22.47;13.80;;;;;;;;;;2052652;28;20181;-48
2022/02/08 02:32:23;;;;;;;19.60;12.57;;;;;;;;;;2057402;28;20202;-51
2022/02/08 02:33:24;;;;;;;26.00;12.77;;;;;;;;;;2068791;28;20188;-51
2022/02/08 02:34:25;;;;;;;27.23;12.60;;;;;;;;;;2059872;28;20170;-47
2022/02/08 02:35:26;;;;;;;25.63;12.97;;;;;;;;;;2053263;28;20201;-54
2022/02/08 02:36:27;;;;;;;24.37;13.43;;;;;;;;;;2052713;28;20682;-54
2022/02/08 02:37:29;;;;;;;25.77;12.53;;;;;;;;;;2044208;28;20255;-54
2022/02/08 02:38:30;;;;;;;28.00;14.17;;;;;;;;;;2052765;28;20185;-52
2022/02/08 02:39:31;;;;;;;24.63;13.00;;;;;;;;;;2053281;28;20173;-51
2022/02/08 02:40:36;;;;;;;26.00;13.63;;;;;;;;;;2046547;28;20193;-51
2022/02/08 02:41:39;;;;;;;22.80;12.67;;;;;;;;;;2051891;28;20214;-51
2022/02/08 02:42:40;;;;;;;25.10;13.30;;;;;;;;;;2058309;28;20224;-56
2022/02/08 02:43:43;;;;;;;22.70;13.50;;;;;;;;;;2060437;28;20197;-51
2022/02/08 02:44:44;;;;;;;25.80;14.37;;;;;;;;;;2051243;28;20826;-51
2022/02/08 02:45:45;;;;;;;25.73;14.57;;;;;;;;;;2051185;28;20178;-53
2022/02/08 02:46:46;;;;;;;28.87;13.33;;;;;;;;;;2061359;28;20170;-50
2022/02/08 02:47:50;;;;;;;24.27;14.73;;;;;;;;;;2065196;28;20177;-51
2022/02/08 02:48:50;;;;;;;24.43;14.00;;;;;;;;;;2060369;28;20178;-57
2022/02/08 02:49:50;;;;;;;29.53;13.67;;;;;;;;;;2045574;28;20176;-54
2022/02/08 02:50:53;;;;;;;25.30;13.73;;;;;;;;;;2052363;28;20190;-58
2022/02/08 02:51:56;;;;;;;27.67;13.80;;;;;;;;;;2065425;28;20224;-56
2022/02/08 02:52:57;;;;;;;25.27;14.40;;;;;;;;;;2058711;28;20206;-56
2022/02/08 02:53:59;;;;;;;25.50;14.70;;;;;;;;;;2051243;28;20906;-57
2022/02/08 02:54:59;;;;;;;26.33;14.33;;;;;;;;;;2051594;28;20245;-53
2022/02/08 02:56:00;;;;;;;28.10;13.87;;;;;;;;;;2059810;28;20182;-49
2022/02/08 02:57:01;;;;;;;25.87;13.77;;;;;;;;;;2059186;28;21053;-58
2022/02/08 02:58:06;;;;;;;24.87;14.17;;;;;;;;;;2043187;28;20179;-58
2022/02/08 02:59:07;;;;;;;32.80;14.40;;;;;;;;;;2050353;28;20544;-51
2022/02/08 03:00:11;;;;;;;26.13;14.40;;;;;;;;;;2052340;28;20178;-56
2022/02/08 03:01:26;;;;;;;30.27;14.63;;;;;;;;;;2043682;28;20268;-55
2022/02/08 03:02:40;;;;;;;21.47;14.33;;;;;;;;;;2054493;28;20191;-52
2022/02/08 03:03:56;;;;;;;36.90;16.17;;;;;;;;;;2059161;28;20540;-48
2022/02/08 03:05:13;;;;;;;32.57;16.77;;;;;;;;;;2060954;28;20259;-54
2022/02/08 03:18:56;;;;;;;24.23;14.70;;;;;;;;;;2065334;28;20249;-53
2022/02/08 03:19:58;;;;;;;33.70;17.60;;;;;;;;;;2060337;28;20170;-55
2022/02/08 03:21:00;;;;;;;22.37;15.37;;;;;;;;;;2043343;28;20179;-56
2022/02/08 03:22:01;;;;;;;24.70;15.97;;;;;;;;;;2052286;28;20182;-54
2022/02/08 03:23:02;;;;;;;32.90;16.63;;;;;;;;;;2050543;28;20511;-59
2022/02/08 03:24:03;;;;;;;24.77;16.67;;;;;;;;;;2060090;28;20209;-54
2022/02/08 03:25:03;;;;;;;28.87;16.03;;;;;;;;;;2068129;28;20270;-56
2022/02/08 03:26:05;;;;;;;24.23;15.03;;;;;;;;;;2066990;28;20308;-57
2022/02/08 03:27:10;;;;;;;35.13;16.07;;;;;;;;;;2067301;28;20185;-57
2022/02/08 03:28:10;;;;;;;27.70;16.47;;;;;;;;;;2059943;28;20209;-57
2022/02/08 03:29:11;;;;;;;31.00;14.97;;;;;;;;;;2068540;28;20220;-54
2022/02/08 03:30:11;;;;;;;33.67;16.53;;;;;;;;;;2067046;28;20185;-58
2022/02/08 03:31:12;;;;;;;29.23;15.90;;;;;;;;;;2060013;28;20286;-54
2022/02/08 03:32:14;;;;;;;24.73;14.87;;;;;;;;;;2057639;28;20223;-57
2022/02/08 03:33:17;;;;;;;22.93;15.93;;;;;;;;;;2059938;28;20212;-54
2022/02/08 03:34:18;;;;;;;26.63;15.07;;;;;;;;;;2052441;28;20170;-53
2022/02/08 03:35:20;;;;;;;26.77;15.37;;;;;;;;;;2043569;29;20221;-54
2022/02/08 03:36:23;;;;;;;24.47;14.77;;;;;;;;;;2059122;28;20853;-58
2022/02/08 03:37:30;;;;;;;24.17;15.07;;;;;;;;;;2057766;28;20201;-50
2022/02/08 03:39:37;;;;;;;24.07;15.27;;;;;;;;;;2052107;28;20167;-51
2022/02/08 03:40:51;;;;;;;25.63;15.40;;;;;;;;;;2046819;28;20168;-54
2022/02/08 03:41:55;;;;;;;25.77;14.63;;;;;;;;;;2049996;28;20171;-59
2022/02/08 03:43:10;;;;;;;24.57;14.20;;;;;;;;;;2049038;28;20602;-55
2022/02/08 03:44:17;;;;;;;16.67;12.27;;;;;;;;;;2067081;28;20166;-50
2022/02/08 03:45:17;;;;;;;19.87;13.77;;;;;;;;;;2060190;28;20423;-52
2022/02/08 03:46:21;;;;;;;21.43;13.70;;;;;;;;;;2051920;28;20660;-59
2022/02/08 03:47:23;;;;;;;21.73;13.57;;;;;;;;;;2058627;28;20167;-53
2022/02/08 03:48:31;;;;;;;18.73;12.40;;;;;;;;;;2059765;28;20182;-54
2022/02/08 03:49:34;;;;;;;22.23;11.83;;;;;;;;;;2049812;28;20198;-57
2022/02/08 03:50:37;;;;;;;16.70;11.77;;;;;;;;;;2051452;28;20209;-56
2022/02/08 03:51:53;;;;;;;18.33;12.60;;;;;;;;;;2059827;28;20631;-56
2022/02/08 03:52:53;;;;;;;19.13;13.17;;;;;;;;;;2058363;28;20336;-56
2022/02/08 03:53:54;;;;;;;15.03;12.30;;;;;;;;;;2067570;28;20742;-50
2022/02/08 03:55:01;;;;;;;19.70;12.37;;;;;;;;;;2057824;28;20174;-51
2022/02/08 03:56:03;;;;;;;19.10;12.37;;;;;;;;;;2051878;28;20182;-56
2022/02/08 03:57:07;;;;;;;22.40;12.67;;;;;;;;;;2050812;28;20171;-53
2022/02/08 03:58:07;;;;;;;12.97;11.50;;;;;;;;;;2059579;28;20257;-52
2022/02/08 03:59:08;;;;;;;16.47;12.10;;;;;;;;;;2066235;28;20189;-56
2022/02/08 04:00:15;;;;;;;16.87;13.20;;;;;;;;;;2050296;28;20178;-57
2022/02/08 04:02:41;;;;;;;16.67;12.27;;;;;;;;;;2051392;28;20234;-53
2022/02/08 04:03:54;;;;;;;19.57;13.13;;;;;;;;;;2049420;28;20234;-58
2022/02/08 04:05:09;;;;;;;14.10;10.43;;;;;;;;;;2053236;28;20182;-59
2022/02/08 04:06:09;;;;;;;15.30;11.37;;;;;;;;;;2053654;28;20182;-54
2022/02/08 04:07:18;;;;;;;18.23;13.07;;;;;;;;;;2053128;28;20654;-56
2022/02/08 04:08:19;;;;;;;15.97;12.50;;;;;;;;;;2046994;28;20610;-53
2022/02/08 04:09:19;;;;;;;16.50;12.47;;;;;;;;;;2051379;28;20175;-56
2022/02/08 04:10:22;;;;;;;21.50;13.07;;;;;;;;;;2051285;28;20175;-55
2022/02/08 04:11:23;;;;;;;17.90;13.20;;;;;;;;;;2050943;28;20187;-60
2022/02/08 04:12:31;;;;;;;17.50;13.10;;;;;;;;;;2052757;28;20265;-58
2022/02/08 04:13:42;;;;;;;17.90;12.97;;;;;;;;;;2052275;28;20166;-52
2022/02/08 04:15:07;;;;;;;20.67;13.23;;;;;;;;;;2050596;28;20186;-56
2022/02/08 04:16:11;;;;;;;18.30;12.97;;;;;;;;;;2051332;28;20189;-58
2022/02/08 04:17:33;;;;;;;18.10;13.57;;;;;;;;;;2053824;28;20159;-53
2022/02/08 04:19:50;;;;;;;23.57;14.40;;;;;;;;;;2050095;28;20569;-57
2022/02/08 04:31:45;;;;;;;20.67;13.90;;;;;;;;;;2048674;28;20190;-55
2022/02/08 04:33:57;;;;;;;25.27;15.67;;;;;;;;;;2052159;28;20298;-54
2022/02/08 04:37:05;;;;;;;29.77;17.13;;;;;;;;;;2051925;28;20553;-55
2022/02/08 04:38:17;;;;;;;29.73;17.73;;;;;;;;;;2051236;28;20194;-60
2022/02/08 04:39:41;;;;;;;31.13;18.70;;;;;;;;;;2050474;28;20322;-60
2022/02/08 04:40:57;;;;;;;29.37;17.97;;;;;;;;;;2051954;28;20217;-58
2022/02/08 04:42:05;;;;;;;32.40;18.07;;;;;;;;;;2052126;28;20182;-57
2022/02/08 04:43:16;;;;;;;26.70;14.73;;;;;;;;;;2050246;28;20230;-54
2022/02/08 04:44:36;;;;;;;31.07;19.83;;;;;;;;;;2049849;28;20900;-60
2022/02/08 04:45:47;;;;;;;25.73;16.13;;;;;;;;;;2051434;28;20173;-58
2022/02/08 04:48:23;;;;;;;30.97;19.30;;;;;;;;;;2050163;28;20181;-57
2022/02/08 04:49:23;;;;;;;30.70;19.37;;;;;;;;;;2051046;28;20189;-59
2022/02/08 04:50:25;;;;;;;34.10;21.50;;;;;;;;;;2052326;28;20192;-58
2022/02/08 04:51:40;;;;;;;29.23;20.20;;;;;;;;;;2052315;28;20225;-61
2022/02/08 04:52:41;;;;;;;31.47;20.50;;;;;;;;;;2050631;28;20226;-58
2022/02/08 04:53:49;;;;;;;30.63;17.50;;;;;;;;;;2059361;28;20178;-57
2022/02/08 04:56:09;;;;;;;42.27;22.37;;;;;;;;;;2051418;28;20191;-49
2022/02/08 04:58:25;;;;;;;38.03;22.43;;;;;;;;;;2047426;28;20177;-58
2022/02/08 05:00:35;;;;;;;34.47;22.20;;;;;;;;;;2052289;28;20189;-53
2022/02/08 05:02:11;;;;;;;41.73;24.13;;;;;;;;;;2050937;28;20855;-52
2022/02/08 05:27:20;;;;;;;52.87;26.37;;;;;;;;;;2052008;28;20183;-59
2022/02/08 05:34:07;;;;;;;40.97;23.67;;;;;;;;;;2051225;28;20204;-53
2022/02/08 05:36:18;;;;;;;51.60;29.20;;;;;;;;;;2051291;28;20175;-57
2022/02/08 05:44:24;;;;;;;48.60;28.02;;;;;;;;;;2049415;28;20250;-59
2022/02/08 05:45:28;;;;;;;53.10;28.80;;;;;;;;;;2048214;28;20246;-58
2022/02/08 05:46:48;;;;;;;57.93;31.07;;;;;;;;;;2051972;28;20718;-56
2022/02/08 05:47:51;;;;;;;50.38;28.95;;;;;;;;;;2052437;28;20538;-55
2022/02/08 05:49:02;;;;;;;44.10;24.63;;;;;;;;;;2050113;28;20616;-55
2022/02/08 05:50:08;;;;;;;50.33;29.27;;;;;;;;;;2052424;28;20785;-55
2022/02/08 05:51:16;;;;;;;47.30;28.20;;;;;;;;;;2048900;28;20179;-59
2022/02/08 05:54:28;;;;;;;49.22;28.77;;;;;;;;;;2051362;28;20189;-58
2022/02/08 05:55:30;;;;;;;60.35;31.00;;;;;;;;;;2051506;28;20244;-53
2022/02/08 05:56:30;;;;;;;52.60;30.63;;;;;;;;;;2052633;28;20166;-55
2022/02/08 05:57:30;;;;;;;51.67;31.20;;;;;;;;;;2051404;28;20248;-53
2022/02/08 05:58:31;;;;;;;52.45;30.00;;;;;;;;;;2051914;28;20265;-56
2022/02/08 05:59:31;;;;;;;51.50;29.27;;;;;;;;;;2060955;28;20253;-58
2022/02/08 06:00:31;;;;;;;51.03;30.20;;;;;;;;;;2059029;28;20660;-56
2022/02/08 06:01:43;;;;;;;50.45;28.90;;;;;;;;;;2065333;28;20166;-57
2022/02/08 06:03:01;;;;;;;48.22;28.15;;;;;;;;;;2057029;28;20185;-55
2022/02/08 06:04:08;;;;;;;55.10;28.02;;;;;;;;;;2061320;28;20669;-57
2022/02/08 06:05:15;;;;;;;45.80;29.10;;;;;;;;;;2062659;28;20715;-55
2022/02/08 06:06:15;;;;;;;47.30;28.70;;;;;;;;;;2060802;28;20169;-59
2022/02/08 06:07:20;;;;;;;55.37;30.70;;;;;;;;;;2064254;28;20186;-59
2022/02/08 06:08:20;;;;;;;54.78;29.85;;;;;;;;;;2051956;28;20185;-61
2022/02/08 06:09:20;;;;;;;50.63;29.55;;;;;;;;;;2054822;28;20174;-57
2022/02/08 06:10:21;;;;;;;54.40;31.30;;;;;;;;;;2055132;28;20201;-60
2022/02/08 06:11:23;;;;;;;49.20;27.27;;;;;;;;;;2052489;28;20171;-60
2022/02/08 06:12:25;;;;;;;50.13;29.27;;;;;;;;;;2049749;28;20206;-50
2022/02/08 06:13:29;;;;;;;47.83;28.05;;;;;;;;;;2057422;28;20178;-58
2022/02/08 06:14:31;;;;;;;60.47;32.17;;;;;;;;;;2051170;28;20192;-54
2022/02/08 06:15:31;;;;;;;59.42;32.17;;;;;;;;;;2059129;28;20177;-56
2022/02/08 06:16:32;;;;;;;49.50;30.25;;;;;;;;;;2068371;28;20555;-56
2022/02/08 06:17:32;;;;;;;48.30;27.65;;;;;;;;;;2058686;28;20189;-60
2022/02/08 06:18:33;;;;;;;52.75;29.60;;;;;;;;;;2053199;28;20170;-57
2022/02/08 06:19:33;;;;;;;54.20;29.38;;;;;;;;;;2042706;29;20245;-53
2022/02/08 06:20:33;;;;;;;51.97;29.75;;;;;;;;;;2049682;28;20639;-56
2022/02/08 06:21:33;;;;;;;44.40;25.33;;;;;;;;;;2055653;28;20666;-59
2022/02/08 06:22:35;;;;;;;51.03;26.48;;;;;;;;;;2049306;28;20664;-51
2022/02/08 06:23:36;;;;;;;50.38;29.17;;;;;;;;;;2051104;28;20599;-56
2022/02/08 06:24:36;;;;;;;53.22;29.38;;;;;;;;;;2052061;28;20194;-57
2022/02/08 06:25:36;;;;;;;50.28;28.52;;;;;;;;;;2053476;28;20221;-56
2022/02/08 06:26:36;;;;;;;51.40;28.55;;;;;;;;;;2051767;28;20166;-59
2022/02/08 06:27:37;;;;;;;55.20;28.25;;;;;;;;;;2052224;28;20670;-58
2022/02/08 06:28:37;;;;;;;46.10;28.30;;;;;;;;;;2069191;28;20178;-50
2022/02/08 06:29:37;;;;;;;39.77;23.17;;;;;;;;;;2069291;28;20195;-55
2022/02/08 06:30:38;;;;;;;47.95;27.05;;;;;;;;;;2052988;28;20166;-56
2022/02/08 06:31:39;;;;;;;41.50;24.48;;;;;;;;;;2050468;28;20189;-55
2022/02/08 06:32:39;;;;;;;52.35;28.05;;;;;;;;;;2051899;28;20324;-57
2022/02/08 06:33:39;;;;;;;49.10;26.35;;;;;;;;;;2052199;28;20221;-54
2022/02/08 06:34:40;;;;;;;47.10;25.00;;;;;;;;;;2051855;28;20182;-56
2022/02/08 06:35:40;;;;;;;48.63;26.98;;;;;;;;;;2060882;28;20177;-55
2022/02/08 06:36:41;;;;;;;44.47;24.50;;;;;;;;;;2061104;28;20624;-53
2022/02/08 06:37:42;;;;;;;48.30;29.35;;;;;;;;;;2060197;28;20249;-58
2022/02/08 06:38:42;;;;;;;47.70;28.70;;;;;;;;;;2059579;28;20170;-55
2022/02/08 06:39:43;;;;;;;50.65;29.70;;;;;;;;;;2051024;28;20702;-56
2022/02/08 06:40:47;;;;;;;50.28;28.17;;;;;;;;;;2050780;28;20197;-56
2022/02/08 06:41:47;;;;;;;52.72;28.80;;;;;;;;;;2052998;28;20626;-56
2022/02/08 06:42:47;;;;;;;52.13;29.65;;;;;;;;;;2066119;28;20193;-54
2022/02/08 06:43:48;;;;;;;47.63;27.45;;;;;;;;;;2068247;28;20209;-53
2022/02/08 06:44:48;;;;;;;51.95;28.80;;;;;;;;;;2051492;28;20171;-54
2022/02/08 06:45:48;;;;;;;50.80;27.57;;;;;;;;;;2052240;28;20631;-55
2022/02/08 06:46:49;;;;;;;47.17;27.73;;;;;;;;;;2052629;28;20325;-53
2022/02/08 06:47:51;;;;;;;47.00;28.80;;;;;;;;;;2065419;28;20170;-55
2022/02/08 06:48:52;;;;;;;55.58;29.15;;;;;;;;;;2068400;28;20165;-51
2022/02/08 06:49:53;;;;;;;41.58;26.38;;;;;;;;;;2060143;28;20182;-54
2022/02/08 06:50:53;;;;;;;49.22;26.33;;;;;;;;;;2052637;28;20169;-56
2022/02/08 06:51:53;;;;;;;46.58;28.25;;;;;;;;;;2051927;28;20186;-55
2022/02/08 06:52:54;;;;;;;48.20;28.70;;;;;;;;;;2054189;28;20257;-57
2022/02/08 06:53:55;;;;;;;46.72;27.63;;;;;;;;;;2051687;28;20173;-54
2022/02/08 06:54:55;;;;;;;52.33;28.70;;;;;;;;;;2056041;28;20277;-52
2022/02/08 06:55:56;;;;;;;42.60;27.17;;;;;;;;;;2059578;28;20189;-58
2022/02/08 06:56:57;;;;;;;43.03;26.33;;;;;;;;;;2051484;28;20183;-58
2022/02/08 06:58:03;;;;;;;50.65;28.63;;;;;;;;;;2051778;28;20725;-52
2022/02/08 06:59:09;;;;;;;43.60;24.70;;;;;;;;;;2053580;28;20741;-53
2022/02/08 07:00:11;;;;;;;46.00;27.98;;;;;;;;;;2052889;28;20205;-58
2022/02/08 07:01:12;;;;;;;49.40;28.05;;;;;;;;;;2052470;28;20171;-52
2022/02/08 07:02:12;;;;;;;46.97;27.45;;;;;;;;;;2053371;28;20676;-56
2022/02/08 07:03:13;;;;;;;42.40;24.58;;;;;;;;;;2051301;28;20174;-54
2022/02/08 07:04:15;;;;;;;47.33;27.20;;;;;;;;;;2053335;28;20218;-53
2022/02/08 07:05:16;;;;;;;38.95;23.90;;;;;;;;;;2052730;28;20186;-56
2022/02/08 07:06:16;;;;;;;48.42;27.27;;;;;;;;;;2050542;28;20261;-57
2022/02/08 07:07:16;;;;;;;44.38;27.95;;;;;;;;;;2051892;28;20174;-58
2022/02/08 07:08:16;;;;;;;43.78;24.90;;;;;;;;;;2052381;28;20599;-57
2022/02/08 07:09:20;;;;;;;44.03;26.95;;;;;;;;;;2048762;28;20162;-53
2022/02/08 07:10:20;;;;;;;48.63;26.13;;;;;;;;;;2061946;28;20170;-58
2022/02/08 07:11:21;;;;;;;47.85;28.35;;;;;;;;;;2049705;28;20170;-57
2022/02/08 07:12:21;;;;;;;45.53;26.83;;;;;;;;;;2054081;28;20183;-55
2022/02/08 07:13:21;;;;;;;45.87;27.67;;;;;;;;;;2052052;28;20182;-53
2022/02/08 07:14:27;;;;;;;45.17;26.17;;;;;;;;;;2052263;28;20164;-55
2022/02/08 07:15:27;;;;;;;45.65;26.77;;;;;;;;;;2052091;28;20480;-59
2022/02/08 07:16:28;;;;;;;48.53;25.63;;;;;;;;;;2053111;28;20193;-56
2022/02/08 07:17:28;;;;;;;42.50;23.67;;;;;;;;;;2053283;28;20166;-59
2022/02/08 07:18:28;;;;;;;45.30;27.17;;;;;;;;;;2052643;28;20297;-58
2022/02/08 07:19:28;;;;;;;43.08;25.08;;;;;;;;;;2053272;28;20253;-54
2022/02/08 07:20:31;;;;;;;42.85;25.83;;;;;;;;;;2052631;28;20174;-57
2022/02/08 07:21:32;;;;;;;37.60;24.60;;;;;;;;;;2053059;28;20202;-56
2022/02/08 07:22:32;;;;;;;49.00;26.27;;;;;;;;;;2049131;28;20206;-56
2022/02/08 07:23:34;;;;;;;38.58;24.67;;;;;;;;;;2052427;28;20238;-58
2022/02/08 07:24:34;;;;;;;38.53;23.33;;;;;;;;;;2052218;28;20161;-56
2022/02/08 07:25:34;;;;;;;40.85;25.13;;;;;;;;;;2059800;28;20186;-55
2022/02/08 07:26:35;;;;;;;39.58;25.48;;;;;;;;;;2059271;28;20185;-58
2022/02/08 07:27:35;;;;;;;39.45;24.85;;;;;;;;;;2060634;28;20173;-55
2022/02/08 07:28:41;;;;;;;38.00;23.67;;;;;;;;;;2051791;28;20178;-51
2022/02/08 07:29:49;;;;;;;40.05;21.77;;;;;;;;;;2050814;28;20263;-57
2022/02/08 07:30:56;;;;;;;32.50;22.77;;;;;;;;;;2052060;28;20352;-51
2022/02/08 07:32:00;;;;;;;37.50;23.85;;;;;;;;;;2052578;28;20178;-55
2022/02/08 07:33:00;;;;;;;37.25;25.38;;;;;;;;;;2081963;22;20227;-59
2022/02/08 07:34:13;;;;;;;33.33;22.73;;;;;;;;;;2079924;28;20708;-59
2022/02/08 07:36:36;;;;;;;38.58;23.38;;;;;;;;;;2081836;28;20172;-59
2022/02/08 07:37:50;;;;;;;32.45;20.70;;;;;;;;;;2084946;28;20203;-59